createdAt,value
2018-03-11T00:01:54.260Z,327.57
2018-03-11T00:04:21.819Z,307.60
2018-03-11T00:06:50.185Z,321.93
2018-03-11T00:09:17.827Z,322.33
2018-03-11T00:11:45.457Z,314.93
2018-03-11T00:14:13.076Z,292.53
2018-03-11T00:16:40.671Z,298.43
2018-03-11T00:19:08.474Z,290.33
2018-03-11T00:21:36.061Z,291.63
2018-03-11T00:24:05.158Z,278.17
2018-03-11T00:26:32.743Z,282.13
2018-03-11T00:29:00.349Z,271.90
2018-03-11T00:31:27.973Z,275.13
2018-03-11T00:33:55.566Z,262.13
2018-03-11T00:36:23.184Z,258.47
2018-03-11T00:38:50.834Z,242.30
2018-03-11T00:41:19.190Z,237.83
2018-03-11T00:43:46.899Z,254.40
2018-03-11T00:46:14.556Z,238.13
2018-03-11T00:48:42.142Z,247.93
2018-03-11T00:51:09.807Z,233.77
2018-03-11T00:53:42.234Z,226.60
2018-03-11T00:56:10.595Z,235.63
2018-03-11T00:58:38.203Z,229.43
2018-03-11T01:01:05.795Z,222.80
2018-03-11T01:03:33.399Z,225.57
2018-03-11T01:06:01.756Z,221.37
2018-03-11T01:08:29.565Z,214.23
2018-03-11T01:10:57.399Z,221.53
2018-03-11T01:13:24.983Z,204.47
2018-03-11T01:15:52.590Z,203.40
2018-03-11T01:18:20.168Z,197.53
2018-03-11T01:20:47.827Z,208.50
2018-03-11T01:23:17.088Z,197.00
2018-03-11T01:25:44.776Z,209.37
2018-03-11T01:28:12.374Z,203.83
2018-03-11T01:30:40.724Z,178.60
2018-03-11T01:33:08.305Z,196.20
2018-03-11T01:35:36.649Z,197.33
2018-03-11T01:38:04.223Z,166.40
2018-03-11T01:40:31.879Z,198.30
2018-03-11T01:42:59.463Z,167.90
2018-03-11T01:45:27.866Z,174.03
2018-03-11T01:47:55.439Z,174.57
2018-03-11T01:50:23.004Z,151.70
2018-03-11T01:53:02.307Z,163.57
2018-03-11T01:58:04.635Z,160.07
2018-03-11T02:00:32.401Z,168.53
2018-03-11T02:03:00.020Z,147.83
2018-03-11T02:05:27.601Z,152.07
2018-03-11T02:07:55.206Z,153.47
2018-03-11T02:10:22.787Z,154.97
2018-03-11T02:12:54.227Z,145.40
2018-03-11T02:15:21.862Z,134.70
2018-03-11T02:17:49.481Z,132.73
2018-03-11T02:20:17.105Z,142.23
2018-03-11T02:22:52.591Z,129.60
2018-03-11T02:25:20.420Z,137.27
2018-03-11T02:27:48.015Z,117.90
2018-03-11T02:30:15.621Z,118.20
2018-03-11T02:32:43.168Z,123.33
2018-03-11T02:35:10.752Z,122.00
2018-03-11T02:37:38.340Z,130.10
2018-03-11T02:40:06.842Z,113.67
2018-03-11T02:42:34.620Z,125.23
2018-03-11T02:45:02.241Z,120.60
2018-03-11T02:47:30.690Z,125.87
2018-03-11T02:49:58.210Z,101.83
2018-03-11T02:52:25.812Z,104.03
2018-03-11T02:54:53.393Z,91.60
2018-03-11T02:57:20.968Z,92.27
2018-03-11T02:59:48.616Z,100.43
2018-03-11T03:02:17.106Z,98.03
2018-03-11T03:04:45.491Z,94.20
2018-03-11T03:07:14.556Z,78.67
2018-03-11T03:09:42.119Z,94.90
2018-03-11T03:12:10.735Z,81.50
2018-03-11T03:14:38.366Z,85.90
2018-03-11T03:17:05.954Z,79.57
2018-03-11T03:19:34.515Z,82.00
2018-03-11T03:22:02.120Z,81.80
2018-03-11T03:24:29.824Z,73.80
2018-03-11T03:26:57.416Z,79.07
2018-03-11T03:29:25.769Z,76.53
2018-03-11T03:31:54.891Z,68.50
2018-03-11T03:34:23.264Z,72.33
2018-03-11T03:36:51.618Z,68.13
2018-03-11T03:39:20.696Z,69.50
2018-03-11T03:41:48.446Z,71.57
2018-03-11T03:44:16.081Z,67.57
2018-03-11T03:46:44.101Z,69.27
2018-03-11T03:49:11.715Z,62.63
2018-03-11T03:51:39.578Z,68.97
2018-03-11T03:54:07.151Z,69.80
2018-03-11T03:56:34.723Z,55.73
2018-03-11T03:59:02.292Z,64.23
2018-03-11T04:01:29.866Z,65.90
2018-03-11T04:03:57.452Z,57.20
2018-03-11T04:06:25.810Z,57.07
2018-03-11T04:08:53.416Z,55.53
2018-03-11T04:11:21.026Z,58.87
2018-03-11T04:13:48.757Z,59.13
2018-03-11T04:16:16.333Z,53.77
2018-03-11T04:18:43.909Z,52.30
2018-03-11T04:21:11.563Z,52.43
2018-03-11T04:23:39.145Z,51.00
2018-03-11T04:26:07.549Z,50.87
2018-03-11T04:28:35.160Z,47.37
2018-03-11T04:31:02.722Z,43.87
2018-03-11T04:33:30.415Z,49.67
2018-03-11T04:35:58.733Z,45.50
2018-03-11T04:38:26.328Z,41.23
2018-03-11T04:40:53.938Z,47.10
2018-03-11T04:43:21.871Z,44.20
2018-03-11T04:45:49.444Z,47.07
2018-03-11T04:48:17.016Z,43.60
2018-03-11T04:50:45.377Z,39.20
2018-03-11T04:53:12.967Z,43.47
2018-03-11T04:55:40.552Z,41.23
2018-03-11T04:58:08.201Z,40.53
2018-03-11T05:00:35.778Z,43.80
2018-03-11T05:03:03.363Z,35.07
2018-03-11T05:05:31.209Z,45.57
2018-03-11T05:07:58.795Z,43.27
2018-03-11T05:10:26.385Z,34.87
2018-03-11T05:12:54.935Z,42.03
2018-03-11T05:15:22.541Z,40.47
2018-03-11T05:17:50.115Z,39.73
2018-03-11T05:20:17.699Z,35.90
2018-03-11T05:22:45.281Z,36.90
2018-03-11T05:25:12.864Z,35.47
2018-03-11T05:27:41.249Z,35.70
2018-03-11T05:30:09.773Z,32.43
2018-03-11T05:32:37.390Z,39.30
2018-03-11T05:35:04.976Z,32.73
2018-03-11T05:37:32.632Z,36.30
2018-03-11T05:40:00.222Z,28.73
2018-03-11T05:42:27.798Z,36.97
2018-03-11T05:44:55.576Z,29.70
2018-03-11T05:47:23.232Z,36.77
2018-03-11T05:49:50.821Z,27.00
2018-03-11T05:52:18.383Z,31.23
2018-03-11T05:54:46.121Z,28.40
2018-03-11T05:57:13.711Z,25.30
2018-03-11T05:59:41.262Z,32.97
2018-03-11T06:02:08.826Z,30.03
2018-03-11T06:04:36.480Z,26.73
2018-03-11T06:07:04.820Z,33.40
2018-03-11T06:09:33.179Z,28.07
2018-03-11T06:12:00.968Z,24.77
2018-03-11T06:14:28.574Z,23.50
2018-03-11T06:16:56.186Z,24.10
2018-03-11T06:19:23.728Z,23.73
2018-03-11T06:21:51.335Z,25.93
2018-03-11T06:24:19.676Z,31.37
2018-03-11T06:26:47.280Z,33.10
2018-03-11T06:29:14.903Z,37.40
2018-03-11T06:31:42.563Z,52.80
2018-03-11T06:34:10.945Z,53.50
2018-03-11T06:36:38.758Z,48.47
2018-03-11T06:39:06.315Z,46.40
2018-03-11T06:41:33.951Z,53.67
2018-03-11T06:44:02.432Z,56.63
2018-03-11T06:46:30.055Z,58.13
2018-03-11T06:48:57.645Z,67.50
2018-03-11T06:51:25.252Z,57.57
2018-03-11T06:53:52.865Z,63.23
2018-03-11T06:56:20.439Z,60.13
2018-03-11T06:58:48.815Z,58.93
2018-03-11T07:01:17.158Z,56.73
2018-03-11T07:03:44.778Z,66.60
2018-03-11T07:06:12.379Z,56.77
2018-03-11T07:08:40.019Z,56.10
2018-03-11T07:11:07.608Z,51.63
2018-03-11T07:13:35.266Z,67.37
2018-03-11T07:16:02.921Z,70.00
2018-03-11T07:18:30.513Z,61.20
2018-03-11T07:20:58.121Z,60.27
2018-03-11T07:23:25.793Z,53.87
2018-03-11T07:25:53.556Z,54.40
2018-03-11T07:28:21.402Z,59.27
2018-03-11T07:30:48.972Z,60.07
2018-03-11T07:33:16.616Z,51.00
2018-03-11T07:35:44.225Z,59.47
2018-03-11T07:38:11.800Z,61.27
2018-03-11T07:40:39.397Z,57.07
2018-03-11T07:43:07.201Z,58.97
2018-03-11T07:45:34.793Z,59.13
2018-03-11T07:48:02.404Z,55.03
2018-03-11T07:50:29.966Z,54.77
2018-03-11T07:52:57.554Z,55.00
2018-03-11T07:55:25.160Z,47.60
2018-03-11T07:57:52.726Z,47.60
2018-03-11T08:00:21.178Z,56.27
2018-03-11T08:02:50.451Z,57.30
2018-03-11T08:05:19.588Z,44.80
2018-03-11T08:07:47.905Z,57.30
2018-03-11T08:10:15.519Z,49.87
2018-03-11T08:12:43.899Z,54.80
2018-03-11T08:15:12.303Z,48.03
2018-03-11T08:17:39.882Z,54.60
2018-03-11T08:20:07.768Z,51.97
2018-03-11T08:22:35.368Z,52.57
2018-03-11T08:25:03.720Z,55.57
2018-03-11T08:27:31.365Z,48.30
2018-03-11T08:29:58.986Z,44.77
2018-03-11T08:32:26.556Z,46.53
2018-03-11T08:34:54.205Z,46.47
2018-03-11T08:37:21.878Z,39.50
2018-03-11T08:39:49.556Z,41.50
2018-03-11T08:42:17.115Z,33.80
2018-03-11T08:44:44.717Z,39.60
2018-03-11T08:47:13.143Z,44.10
2018-03-11T08:49:41.278Z,35.17
2018-03-11T08:52:09.746Z,31.40
2018-03-11T08:54:37.373Z,40.50
2018-03-11T08:57:04.993Z,38.70
2018-03-11T08:59:32.606Z,31.07
2018-03-11T09:02:00.259Z,30.03
2018-03-11T09:04:29.179Z,40.17
2018-03-11T09:06:56.727Z,31.87
2018-03-11T09:09:24.675Z,29.40
2018-03-11T09:11:52.284Z,38.97
2018-03-11T09:14:19.986Z,24.67
2018-03-11T09:16:47.661Z,64.50
2018-03-11T09:19:15.371Z,106.78
2018-03-11T09:21:42.966Z,92.37
2018-03-11T09:24:10.577Z,66.37
2018-03-11T09:26:38.199Z,45.77
2018-03-11T09:29:05.805Z,52.33
2018-03-11T09:31:35.174Z,44.23
2018-03-11T09:34:02.953Z,48.97
2018-03-11T09:36:30.525Z,38.10
2018-03-11T09:38:58.141Z,35.10
2018-03-11T09:41:25.747Z,28.17
2018-03-11T09:43:53.373Z,29.63
2018-03-11T09:46:21.103Z,22.27
2018-03-11T09:48:49.464Z,31.47
2018-03-11T09:51:17.830Z,29.73
2018-03-11T09:53:45.391Z,22.83
2018-03-11T09:56:13.167Z,28.83
2018-03-11T09:58:41.548Z,17.10
2018-03-11T10:01:09.102Z,18.30
2018-03-11T10:03:37.495Z,30.50
2018-03-11T10:06:05.833Z,32.97
2018-03-11T10:08:33.428Z,15.53
2018-03-11T10:11:01.893Z,29.27
2018-03-11T10:13:29.507Z,13.27
2018-03-11T10:15:57.036Z,14.80
2018-03-11T10:18:25.386Z,22.43
2018-03-11T10:20:52.967Z,21.43
2018-03-11T10:23:21.562Z,12.40
2018-03-11T10:25:49.885Z,14.60
2018-03-11T10:28:17.672Z,11.97
2018-03-11T10:30:45.327Z,18.00
2018-03-11T10:33:12.921Z,14.60
2018-03-11T10:35:41.275Z,14.37
2018-03-11T10:38:08.870Z,18.13
2018-03-11T10:40:36.453Z,49.20
2018-03-11T10:43:04.212Z,63.80
2018-03-11T10:45:31.807Z,38.43
2018-03-11T10:48:00.897Z,30.43
2018-03-11T10:50:28.528Z,33.53
2018-03-11T10:52:56.099Z,24.00
2018-03-11T10:55:24.499Z,28.37
2018-03-11T10:57:52.124Z,22.90
2018-03-11T11:00:21.326Z,24.07
2018-03-11T11:02:48.914Z,16.80
2018-03-11T11:05:16.500Z,20.13
2018-03-11T11:07:44.912Z,18.60
2018-03-11T11:10:14.032Z,26.20
2018-03-11T11:12:41.593Z,19.23
2018-03-11T11:15:09.263Z,11.80
2018-03-11T11:17:36.835Z,20.47
2018-03-11T11:20:04.398Z,12.47
2018-03-11T11:22:32.071Z,28.43
2018-03-11T11:24:59.812Z,19.33
2018-03-11T11:27:27.546Z,15.60
2018-03-11T11:29:55.161Z,13.83
2018-03-11T11:32:22.732Z,10.63
2018-03-11T11:34:51.184Z,15.93
2018-03-11T11:37:18.814Z,9.80
2018-03-11T11:39:46.416Z,9.77
2018-03-11T11:42:14.020Z,18.23
2018-03-11T11:44:41.639Z,16.13
2018-03-11T11:47:09.210Z,15.00
2018-03-11T11:49:36.800Z,18.30
2018-03-11T11:52:04.448Z,9.90
2018-03-11T11:54:32.036Z,18.93
2018-03-11T11:56:59.596Z,8.87
2018-03-11T11:59:27.203Z,10.13
2018-03-11T12:01:54.782Z,12.97
2018-03-11T12:04:23.142Z,14.73
2018-03-11T12:06:50.727Z,7.30
2018-03-11T12:09:18.416Z,15.57
2018-03-11T12:11:46.000Z,8.93
2018-03-11T12:14:13.595Z,12.10
2018-03-11T12:16:42.114Z,7.80
2018-03-11T12:19:09.665Z,9.43
2018-03-11T12:21:37.292Z,15.77
2018-03-11T12:24:04.892Z,6.77
2018-03-11T12:26:32.483Z,6.77
2018-03-11T12:29:00.080Z,4.10
2018-03-11T12:31:28.469Z,6.67
2018-03-11T12:33:56.827Z,6.90
2018-03-11T12:36:24.379Z,8.83
2018-03-11T12:38:52.773Z,5.27
2018-03-11T12:41:20.323Z,11.07
2018-03-11T12:43:47.937Z,4.23
2018-03-11T12:46:15.484Z,3.47
2018-03-11T12:48:43.088Z,4.43
2018-03-11T12:51:10.769Z,5.37
2018-03-11T12:53:39.134Z,6.23
2018-03-11T12:56:06.708Z,8.03
2018-03-11T12:58:34.380Z,7.77
2018-03-11T13:01:02.703Z,14.37
2018-03-11T13:03:30.290Z,9.73
2018-03-11T13:05:57.879Z,6.40
2018-03-11T13:08:26.383Z,7.23
2018-03-11T13:10:53.954Z,11.37
2018-03-11T13:13:21.663Z,7.83
2018-03-11T13:15:49.237Z,4.27
2018-03-11T13:18:16.875Z,9.80
2018-03-11T13:20:56.282Z,5.07
2018-03-11T13:23:23.877Z,14.47
2018-03-11T13:25:51.499Z,14.40
2018-03-11T13:28:30.880Z,7.67
2018-03-11T13:30:59.154Z,7.60
2018-03-11T13:33:38.593Z,14.73
2018-03-11T13:36:06.173Z,5.63
2018-03-11T13:38:46.386Z,10.60
2018-03-11T13:41:14.011Z,6.73
2018-03-11T13:43:41.560Z,7.77
2018-03-11T13:46:22.007Z,5.33
2018-03-11T13:48:50.361Z,9.90
2018-03-11T13:51:29.751Z,12.60
2018-03-11T13:53:57.400Z,7.40
2018-03-11T13:56:25.742Z,2.03
2018-03-11T13:58:53.376Z,5.80
2018-03-11T14:01:20.969Z,5.60
2018-03-11T14:03:48.562Z,5.07
2018-03-11T14:06:16.909Z,3.20
2018-03-11T14:08:44.478Z,8.60
2018-03-11T14:11:13.143Z,12.23
2018-03-11T14:13:41.506Z,3.13
2018-03-11T14:16:09.127Z,18.47
2018-03-11T14:18:36.803Z,2.80
2018-03-11T14:21:04.386Z,4.70
2018-03-11T14:23:32.024Z,5.23
2018-03-11T14:25:59.686Z,10.73
2018-03-11T14:28:27.410Z,6.77
2018-03-11T14:30:55.013Z,5.90
2018-03-11T14:33:22.676Z,7.30
2018-03-11T14:35:50.309Z,7.63
2018-03-11T14:38:18.659Z,5.23
2018-03-11T14:40:46.287Z,1.90
2018-03-11T14:43:13.861Z,12.60
2018-03-11T14:45:41.625Z,3.33
2018-03-11T14:48:09.217Z,1.63
2018-03-11T14:50:36.951Z,5.10
2018-03-11T14:53:04.546Z,3.13
2018-03-11T14:55:32.125Z,2.47
2018-03-11T14:58:00.493Z,4.47
2018-03-11T15:00:28.080Z,9.80
2018-03-11T15:02:55.687Z,3.63
2018-03-11T15:05:23.261Z,1.47
2018-03-11T15:07:50.929Z,2.50
2018-03-11T15:10:19.261Z,2.60
2018-03-11T15:12:46.907Z,3.90
2018-03-11T15:15:14.567Z,6.60
2018-03-11T15:17:42.223Z,6.83
2018-03-11T15:20:09.833Z,1.23
2018-03-11T15:22:37.468Z,4.43
2018-03-11T15:25:05.825Z,1.57
2018-03-11T15:27:33.439Z,1.90
2018-03-11T15:30:00.998Z,1.30
2018-03-11T15:32:28.550Z,2.63
2018-03-11T15:34:56.143Z,7.83
2018-03-11T15:37:24.553Z,1.20
2018-03-11T15:39:52.309Z,1.70
2018-03-11T15:42:19.893Z,2.00
2018-03-11T15:44:47.445Z,1.53
2018-03-11T15:47:15.066Z,3.47
2018-03-11T15:49:43.401Z,1.37
2018-03-11T15:52:10.999Z,0.93
2018-03-11T15:54:39.468Z,1.20
2018-03-11T15:57:07.094Z,1.50
2018-03-11T15:59:34.686Z,4.10
2018-03-11T16:02:02.363Z,0.80
2018-03-11T16:04:30.888Z,1.17
2018-03-11T16:06:58.536Z,3.17
2018-03-11T16:09:26.365Z,0.70
2018-03-11T16:11:54.721Z,6.07
2018-03-11T16:14:23.310Z,2.37
2018-03-11T16:16:51.054Z,2.00
2018-03-11T16:19:18.598Z,9.27
2018-03-11T16:21:46.198Z,4.53
2018-03-11T16:24:13.753Z,4.00
2018-03-11T16:26:41.330Z,2.33
2018-03-11T16:29:09.691Z,6.77
2018-03-11T16:31:37.270Z,10.80
2018-03-11T16:34:05.642Z,10.20
2018-03-11T16:36:34.000Z,24.70
2018-03-11T16:39:01.604Z,10.65
2018-03-11T16:41:29.164Z,4.90
2018-03-11T16:43:56.744Z,4.47
2018-03-11T16:46:24.347Z,23.33
2018-03-11T16:48:51.911Z,7.00
2018-03-11T16:51:19.498Z,8.70
2018-03-11T16:53:47.847Z,10.57
2018-03-11T16:56:15.426Z,6.67
2018-03-11T16:58:43.756Z,6.67
2018-03-11T17:01:11.462Z,17.90
2018-03-11T17:03:39.026Z,13.07
2018-03-11T17:06:07.346Z,4.00
2018-03-11T17:08:34.938Z,10.90
2018-03-11T17:11:02.569Z,3.67
2018-03-11T17:13:30.192Z,12.30
2018-03-11T17:15:58.526Z,9.77
2018-03-11T17:18:26.143Z,5.63
2018-03-11T17:20:53.755Z,5.10
2018-03-11T17:23:21.320Z,13.47
2018-03-11T17:25:48.910Z,8.53
2018-03-11T17:28:17.218Z,8.33
2018-03-11T17:30:44.784Z,12.40
2018-03-11T17:33:12.390Z,21.60
2018-03-11T17:35:41.478Z,7.50
2018-03-11T17:38:09.042Z,13.57
2018-03-11T17:40:36.776Z,4.60
2018-03-11T17:43:04.386Z,15.70
2018-03-11T17:45:32.751Z,2.60
2018-03-11T17:48:01.098Z,6.33
2018-03-11T17:50:28.771Z,2.70
2018-03-11T17:52:56.338Z,6.57
2018-03-11T17:55:23.946Z,5.17
2018-03-11T17:57:51.519Z,12.80
2018-03-11T18:00:19.070Z,16.17
2018-03-11T18:02:46.659Z,10.33
2018-03-11T18:05:14.224Z,8.30
2018-03-11T18:07:41.858Z,5.33
2018-03-11T18:10:09.408Z,7.53
2018-03-11T18:12:37.075Z,4.23
2018-03-11T18:15:05.376Z,8.23
2018-03-11T18:17:32.943Z,21.33
2018-03-11T18:20:00.622Z,7.40
2018-03-11T18:22:28.190Z,16.40
2018-03-11T18:24:55.770Z,2.30
2018-03-11T18:27:24.178Z,2.10
2018-03-11T18:29:51.751Z,2.93
2018-03-11T18:32:19.314Z,9.33
2018-03-11T18:34:47.833Z,4.47
2018-03-11T18:37:15.386Z,4.47
2018-03-11T18:39:43.028Z,2.40
2018-03-11T18:42:10.657Z,12.70
2018-03-11T18:44:38.230Z,4.90
2018-03-11T18:47:05.856Z,4.47
2018-03-11T18:49:34.207Z,2.50
2018-03-11T18:52:03.306Z,6.20
2018-03-11T18:54:30.891Z,4.50
2018-03-11T18:56:58.475Z,10.67
2018-03-11T18:59:26.184Z,9.17
2018-03-11T19:01:53.748Z,6.30
2018-03-11T19:04:22.129Z,5.10
2018-03-11T19:06:49.691Z,8.07
2018-03-11T19:09:17.308Z,2.20
2018-03-11T19:11:45.066Z,8.70
2018-03-11T19:14:12.669Z,2.87
2018-03-11T19:16:40.276Z,8.20
2018-03-11T19:19:07.867Z,5.37
2018-03-11T19:21:35.407Z,4.50
2018-03-11T19:24:02.993Z,2.67
2018-03-11T19:26:30.613Z,2.30
2018-03-11T19:28:58.162Z,1.80
2018-03-11T19:31:25.738Z,5.77
2018-03-11T19:33:53.967Z,6.27
2018-03-11T19:36:21.634Z,5.30
2018-03-11T19:38:50.054Z,6.10
2018-03-11T19:41:17.635Z,2.17
2018-03-11T19:43:45.197Z,8.40
2018-03-11T19:46:12.878Z,9.43
2018-03-11T19:48:40.449Z,5.77
2018-03-11T19:51:08.269Z,3.20
2018-03-11T19:53:36.696Z,4.60
2018-03-11T19:56:05.106Z,3.27
2018-03-11T19:58:32.711Z,2.30
2018-03-11T20:01:00.264Z,2.00
2018-03-11T20:03:27.846Z,5.60
2018-03-11T20:05:55.450Z,8.37
2018-03-11T20:08:23.002Z,2.00
2018-03-11T20:10:50.630Z,4.23
2018-03-11T20:13:18.243Z,12.93
2018-03-11T20:15:45.890Z,3.03
2018-03-11T20:18:13.487Z,2.40
2018-03-11T20:20:41.045Z,2.50
2018-03-11T20:23:08.628Z,1.77
2018-03-11T20:25:36.289Z,2.20
2018-03-11T20:28:03.856Z,2.37
2018-03-11T20:30:31.419Z,5.17
2018-03-11T20:32:58.993Z,4.67
2018-03-11T20:35:27.311Z,3.93
2018-03-11T20:37:54.917Z,2.10
2018-03-11T20:40:22.526Z,2.00
2018-03-11T20:42:50.116Z,2.30
2018-03-11T20:45:17.699Z,5.03
2018-03-11T20:47:45.281Z,2.03
2018-03-11T20:50:13.651Z,4.40
2018-03-11T20:52:41.427Z,2.87
2018-03-11T20:55:09.316Z,3.23
2018-03-11T20:57:36.906Z,2.03
2018-03-11T21:00:04.475Z,2.90
2018-03-11T21:02:32.063Z,2.00
2018-03-11T21:05:00.423Z,3.23
2018-03-11T21:07:27.975Z,1.97
2018-03-11T21:09:55.535Z,2.20
2018-03-11T21:12:23.060Z,2.50
2018-03-11T21:14:50.633Z,2.40
2018-03-11T21:17:18.225Z,1.90
2018-03-11T21:19:45.989Z,1.90
2018-03-11T21:22:13.578Z,2.60
2018-03-11T21:24:41.133Z,2.50
2018-03-11T21:27:09.636Z,2.47
2018-03-11T21:29:37.244Z,2.63
2018-03-11T21:32:04.821Z,3.23
2018-03-11T21:34:33.419Z,6.10
2018-03-11T21:37:01.024Z,5.27
2018-03-11T21:39:28.605Z,11.03
2018-03-11T21:41:56.210Z,4.00
2018-03-11T21:44:24.545Z,11.53
2018-03-11T21:46:52.145Z,4.33
2018-03-11T21:49:19.803Z,4.27
2018-03-11T21:51:47.439Z,3.40
2018-03-11T21:54:15.065Z,2.70
2018-03-11T21:56:42.677Z,4.70
2018-03-11T21:59:11.022Z,8.63
2018-03-11T22:01:38.636Z,5.90
2018-03-11T22:04:06.210Z,6.77
2018-03-11T22:06:33.759Z,6.50
2018-03-11T22:09:01.353Z,5.83
2018-03-11T22:11:28.985Z,8.97
2018-03-11T22:13:56.559Z,6.60
2018-03-11T22:16:24.113Z,8.50
2018-03-11T22:18:51.688Z,10.17
2018-03-11T22:21:19.356Z,11.90
2018-03-11T22:23:46.916Z,12.07
2018-03-11T22:26:14.494Z,8.53
2018-03-11T22:28:42.241Z,14.87
2018-03-11T22:31:09.971Z,12.43
2018-03-11T22:33:37.653Z,10.73
2018-03-11T22:36:05.246Z,14.30
2018-03-11T22:38:32.807Z,15.43
2018-03-11T22:41:00.430Z,15.97
2018-03-11T22:43:28.076Z,15.20
2018-03-11T22:45:55.700Z,16.17
2018-03-11T22:48:24.024Z,21.90
2018-03-11T22:50:51.625Z,17.17
2018-03-11T22:53:19.292Z,20.20
2018-03-11T22:55:46.901Z,24.20
2018-03-11T22:58:14.514Z,18.83
2018-03-11T23:00:42.166Z,25.50
2018-03-11T23:03:09.782Z,22.13
2018-03-11T23:05:37.498Z,24.47
2018-03-11T23:08:05.952Z,22.13
2018-03-11T23:10:33.600Z,27.43
2018-03-11T23:13:01.227Z,24.40
2018-03-11T23:15:28.830Z,19.50
2018-03-11T23:17:56.426Z,106.40
2018-03-11T23:20:24.770Z,112.20
2018-03-11T23:22:52.401Z,121.70
2018-03-11T23:25:19.978Z,132.57
2018-03-11T23:27:47.575Z,130.83
2018-03-11T23:30:15.235Z,142.50
2018-03-11T23:32:42.908Z,159.10
2018-03-11T23:35:11.277Z,135.77
2018-03-11T23:37:38.860Z,138.13
2018-03-11T23:40:07.250Z,162.57
2018-03-11T23:42:34.830Z,148.37
2018-03-11T23:45:02.421Z,157.43
2018-03-11T23:47:30.009Z,150.70
2018-03-11T23:49:58.332Z,147.03
2018-03-11T23:52:26.092Z,153.63
2018-03-11T23:54:53.621Z,151.23
2018-03-11T23:57:21.922Z,157.80
2018-03-11T23:59:49.662Z,161.77
